Time;durP1;ratioP1;P1;durP2;ratioP2;P2;SDS_P1;SDS_P2;PMS_P1;PMS_P2;Temp;Humidity;BMP_temperature;BMP_pressure;BME280_temperature;BME280_humidity;BME280_pressure;Samples;Min_cycle;Max_cycle;Signal;HPM_P1;HPM_P2
2022/02/02 00:01:02;;;;;;;30.90;6.10;;;8.60;99.90;;;;;;5026750;28;20057;-35
2022/02/02 00:03:28;;;;;;;30.08;6.07;;;8.60;99.90;;;;;;5026382;28;20032;-35
2022/02/02 00:06:06;;;;;;;30.40;6.05;;;8.60;99.90;;;;;;5027003;28;20112;-34
2022/02/02 00:08:39;;;;;;;33.35;6.38;;;8.70;99.90;;;;;;5027177;28;20049;-37
2022/02/02 00:19:06;;;;;;;39.47;7.22;;;8.70;99.90;;;;;;5027333;28;20914;-34
2022/02/02 00:24:10;;;;;;;23.17;5.10;;;8.70;99.90;;;;;;5026294;28;20029;-35
2022/02/02 00:26:40;;;;;;;29.35;4.90;;;8.60;99.90;;;;;;5026450;28;20025;-34
2022/02/02 00:29:19;;;;;;;24.20;5.45;;;8.60;99.90;;;;;;5027031;28;20029;-33
2022/02/02 00:31:56;;;;;;;30.42;6.07;;;8.60;99.90;;;;;;5026936;28;20021;-35
2022/02/02 00:34:25;;;;;;;36.85;6.25;;;8.60;99.90;;;;;;5026060;28;20024;-34
2022/02/02 00:36:58;;;;;;;25.73;5.53;;;8.60;99.90;;;;;;5027267;28;20160;-34
2022/02/02 00:39:26;;;;;;;35.55;7.60;;;8.60;99.90;;;;;;5026016;28;20033;-34
2022/02/02 00:41:54;;;;;;;34.60;6.38;;;8.60;99.90;;;;;;5026213;28;20499;-36
2022/02/02 00:44:20;;;;;;;30.75;6.63;;;8.60;99.90;;;;;;5026250;28;20025;-36
2022/02/02 00:46:46;;;;;;;37.60;7.15;;;8.70;99.90;;;;;;5027017;28;20380;-33
2022/02/02 00:49:13;;;;;;;31.70;6.20;;;8.70;99.90;;;;;;5025779;28;20103;-34
2022/02/02 00:51:44;;;;;;;29.05;6.03;;;8.80;99.90;;;;;;5026972;28;20018;-34
2022/02/02 00:54:16;;;;;;;26.33;5.95;;;8.80;99.90;;;;;;5026424;28;20051;-36
2022/02/02 00:56:43;;;;;;;30.08;5.57;;;8.80;99.90;;;;;;5023784;28;20068;-34
2022/02/02 00:59:08;;;;;;;25.83;5.85;;;8.90;99.90;;;;;;5026318;28;20056;-34
2022/02/02 01:01:34;;;;;;;28.05;6.82;;;8.90;99.90;;;;;;5025396;28;20084;-34
2022/02/02 01:04:00;;;;;;;24.08;5.43;;;8.90;99.90;;;;;;5027078;28;20063;-34
2022/02/02 01:06:28;;;;;;;28.50;6.50;;;8.90;99.90;;;;;;5026017;28;20694;-34
2022/02/02 01:09:13;;;;;;;31.52;5.53;;;8.90;99.90;;;;;;5026553;28;20030;-34
2022/02/02 01:19:38;;;;;;;33.30;6.65;;;9.00;99.90;;;;;;5026410;28;20026;-34
2022/02/02 01:30:00;;;;;;;23.17;4.57;;;8.90;99.90;;;;;;5030413;28;20048;-35
2022/02/02 01:32:26;;;;;;;31.45;5.93;;;8.90;99.90;;;;;;5029651;28;20032;-34
2022/02/02 01:34:53;;;;;;;23.58;5.70;;;8.80;99.90;;;;;;5030771;28;20021;-35
2022/02/02 01:37:19;;;;;;;36.22;6.72;;;8.80;99.90;;;;;;5028849;28;20044;-35
2022/02/02 01:39:47;;;;;;;34.40;6.55;;;8.70;99.90;;;;;;5030131;28;20026;-34
2022/02/02 01:42:17;;;;;;;31.00;6.55;;;8.60;99.90;;;;;;5029270;28;20207;-35
2022/02/02 01:45:07;;;;;;;37.03;5.97;;;8.60;99.90;;;;;;5029599;28;20053;-35
2022/02/02 01:47:42;;;;;;;35.42;6.18;;;8.50;99.90;;;;;;5029307;28;20107;-34
2022/02/02 01:50:19;;;;;;;38.35;7.05;;;8.50;99.90;;;;;;5049192;28;20029;-35
2022/02/02 01:55:38;;;;;;;30.67;5.95;;;8.60;99.90;;;;;;5048919;28;20039;-34
2022/02/02 01:58:20;;;;;;;29.40;6.28;;;8.60;99.90;;;;;;5032112;28;20064;-35
2022/02/02 02:00:46;;;;;;;40.92;8.20;;;8.60;99.90;;;;;;5030222;28;20472;-35
2022/02/02 02:03:11;;;;;;;36.97;6.25;;;8.60;99.90;;;;;;5028453;28;20634;-35
2022/02/02 02:05:37;;;;;;;35.45;6.43;;;8.60;99.90;;;;;;5028896;28;20040;-35
2022/02/02 02:08:02;;;;;;;29.60;6.88;;;8.60;99.90;;;;;;5029436;28;20044;-35
2022/02/02 02:10:28;;;;;;;30.42;6.32;;;8.60;99.90;;;;;;5029062;28;20044;-33
2022/02/02 02:12:59;;;;;;;33.10;7.57;;;8.60;99.90;;;;;;5028356;28;20052;-34
2022/02/02 02:15:29;;;;;;;31.70;6.65;;;8.50;99.90;;;;;;5029026;28;20460;-35
2022/02/02 02:17:55;;;;;;;28.30;5.78;;;8.40;99.90;;;;;;5028558;28;20568;-35
2022/02/02 02:20:21;;;;;;;25.95;6.15;;;8.50;99.90;;;;;;5028351;28;20108;-35
2022/02/02 02:22:47;;;;;;;28.77;6.18;;;8.40;99.90;;;;;;5028607;28;20028;-34
2022/02/02 02:25:24;;;;;;;25.70;6.68;;;8.50;99.90;;;;;;5029043;28;20040;-35
2022/02/02 02:27:51;;;;;;;37.65;7.18;;;8.60;99.90;;;;;;5028206;28;20021;-34
2022/02/02 02:56:49;;;;;;;29.67;6.47;;;8.40;99.90;;;;;;5028631;28;20036;-34
2022/02/02 02:59:20;;;;;;;40.42;6.50;;;8.40;99.90;;;;;;5028182;28;20518;-41
2022/02/02 03:32:25;;;;;;;28.83;5.88;;;8.40;99.90;;;;;;5028276;28;20048;-34
2022/02/02 03:51:31;;;;;;;30.15;6.43;;;8.30;99.90;;;;;;5026562;28;20550;-33
2022/02/02 03:57:07;;;;;;;29.73;5.75;;;8.40;99.90;;;;;;5026824;28;20373;-33
2022/02/02 03:59:38;;;;;;;29.88;5.65;;;8.40;99.90;;;;;;5006805;28;20034;-34
2022/02/02 04:02:16;;;;;;;22.73;4.90;;;8.40;99.90;;;;;;5022563;28;20562;-35
2022/02/02 04:07:16;;;;;;;26.35;5.88;;;8.40;99.90;;;;;;5027132;28;20030;-35
2022/02/02 04:09:43;;;;;;;35.65;7.30;;;8.40;99.90;;;;;;5027214;28;20037;-36
2022/02/02 04:12:20;;;;;;;26.40;5.40;;;8.50;99.90;;;;;;5026148;28;20671;-34
2022/02/02 04:51:30;;;;;;;31.10;6.03;;;8.80;99.90;;;;;;5026014;28;20043;-34
2022/02/02 05:10:54;;;;;;;32.15;6.13;;;8.90;99.90;;;;;;5029063;28;20037;-35
2022/02/02 05:16:30;;;;;;;32.20;6.38;;;8.90;99.90;;;;;;5029122;28;20471;-35
2022/02/02 05:51:10;;;;;;;36.33;6.28;;;8.80;99.90;;;;;;5027729;28;20065;-34
2022/02/02 05:53:36;;;;;;;33.88;6.97;;;8.70;99.90;;;;;;5028711;28;20021;-34
2022/02/02 05:56:04;;;;;;;29.83;6.38;;;8.60;99.90;;;;;;5028254;28;20049;-34
2022/02/02 05:58:31;;;;;;;35.28;6.60;;;8.60;99.90;;;;;;5027552;28;20021;-35
2022/02/02 06:00:59;;;;;;;33.17;6.53;;;8.60;99.90;;;;;;4992478;28;1011191;-35
2022/02/02 06:03:48;;;;;;;30.52;7.00;;;8.50;99.90;;;;;;5028863;28;20504;-34
2022/02/02 06:06:14;;;;;;;23.83;5.50;;;8.50;99.90;;;;;;5028642;28;20061;-34
2022/02/02 06:08:47;;;;;;;34.63;7.43;;;8.50;99.90;;;;;;5029363;28;20064;-34
2022/02/02 06:11:14;;;;;;;;;;;8.50;99.90;;;;;;5029001;28;20113;-34
2022/02/02 06:13:44;;;;;;;30.15;6.07;;;8.50;99.90;;;;;;5026406;28;19964;-33
2022/02/02 06:16:11;;;;;;;32.10;6.30;;;8.50;99.90;;;;;;5027926;28;20068;-34
2022/02/02 06:18:37;;;;;;;29.92;6.90;;;8.40;99.90;;;;;;5027820;28;20063;-34
2022/02/02 06:21:07;;;;;;;33.25;6.25;;;8.40;99.90;;;;;;5028759;28;20037;-34
2022/02/02 06:23:38;;;;;;;30.88;6.72;;;8.40;99.90;;;;;;5028327;28;20498;-34
2022/02/02 06:26:08;;;;;;;30.75;6.38;;;8.40;99.90;;;;;;5028373;28;20076;-34
2022/02/02 06:28:35;;;;;;;31.50;5.93;;;8.30;99.90;;;;;;5028024;28;20033;-34
2022/02/02 06:31:05;;;;;;;20.95;4.93;;;8.30;99.90;;;;;;5027876;28;20022;-35
2022/02/02 06:33:35;;;;;;;20.08;4.53;;;8.30;99.90;;;;;;5027688;28;20413;-35
2022/02/02 06:36:03;;;;;;;24.15;5.57;;;8.30;99.90;;;;;;5027919;28;20027;-34
2022/02/02 06:38:31;;;;;;;28.42;6.55;;;8.20;99.90;;;;;;5017104;28;20109;-35
2022/02/02 06:40:59;;;;;;;27.40;5.68;;;8.20;99.90;;;;;;5025800;28;20053;-35
2022/02/02 06:43:26;;;;;;;28.55;5.22;;;8.20;99.90;;;;;;5026123;28;20045;-34
2022/02/02 06:45:52;;;;;;;28.10;6.03;;;8.20;99.90;;;;;;5028811;28;20018;-32
2022/02/02 06:48:18;;;;;;;20.77;4.63;;;8.20;99.90;;;;;;5027156;28;20021;-34
2022/02/02 06:50:56;;;;;;;22.27;4.68;;;8.20;99.90;;;;;;5028934;28;20116;-34
2022/02/02 06:53:28;;;;;;;24.25;4.78;;;8.20;99.90;;;;;;5027113;28;20022;-35
2022/02/02 06:56:28;;;;;;;22.42;4.43;;;8.20;99.90;;;;;;5029077;28;20029;-33
2022/02/02 07:02:12;;;;;;;21.50;4.90;;;8.10;99.90;;;;;;5028375;28;20504;-35
2022/02/02 07:11:02;;;;;;;19.15;4.70;;;8.10;99.90;;;;;;5030139;28;20041;-34
2022/02/02 07:18:49;;;;;;;27.13;6.00;;;7.90;99.90;;;;;;5027454;28;20038;-35
2022/02/02 07:21:27;;;;;;;22.40;5.78;;;7.90;99.90;;;;;;5007460;28;20061;-34
2022/02/02 07:24:14;;;;;;;25.08;4.53;;;7.90;99.90;;;;;;5025605;28;20030;-34
2022/02/02 07:29:38;;;;;;;19.55;4.30;;;7.80;99.90;;;;;;5024595;28;20034;-34
2022/02/02 07:32:12;;;;;;;24.85;4.43;;;7.80;99.90;;;;;;5028782;28;20030;-36
2022/02/02 07:34:57;;;;;;;23.75;4.40;;;7.80;99.90;;;;;;5028419;28;20036;-34
2022/02/02 07:37:30;;;;;;;20.45;4.10;;;7.80;99.90;;;;;;5027409;28;20036;-34
2022/02/02 07:39:59;;;;;;;17.33;3.95;;;7.70;99.90;;;;;;5026644;28;20032;-34
2022/02/02 07:42:26;;;;;;;22.20;4.70;;;7.80;99.90;;;;;;5026925;28;20080;-34
2022/02/02 07:44:58;;;;;;;21.00;5.15;;;7.80;99.90;;;;;;5038523;28;20035;-35
2022/02/02 07:47:25;;;;;;;22.90;4.53;;;7.80;99.90;;;;;;5046821;28;20025;-35
2022/02/02 07:49:54;;;;;;;21.58;4.28;;;7.80;99.90;;;;;;5029911;28;20029;-35
2022/02/02 07:52:20;;;;;;;16.35;3.45;;;7.80;99.90;;;;;;5027657;28;20037;-35
2022/02/02 07:54:48;;;;;;;23.27;3.95;;;7.90;99.90;;;;;;5026787;28;20362;-35
2022/02/02 07:57:20;;;;;;;23.30;4.72;;;8.00;99.90;;;;;;5026326;28;20041;-35
2022/02/02 08:00:07;;;;;;;19.40;3.60;;;8.00;99.90;;;;;;5026475;28;20093;-34
2022/02/02 08:02:50;;;;;;;17.00;3.30;;;8.10;99.90;;;;;;5027168;28;20060;-33
2022/02/02 08:05:16;;;;;;;;;;;8.10;99.90;;;;;;5026594;28;20032;-33
2022/02/02 08:07:50;;;;;;;22.63;3.85;;;8.20;99.90;;;;;;5027216;28;19991;-33
2022/02/02 08:10:20;;;;;;;18.17;3.88;;;8.20;99.90;;;;;;5026139;28;20028;-35
2022/02/02 08:12:52;;;;;;;15.13;3.35;;;8.20;99.90;;;;;;5027376;28;20022;-34
2022/02/02 08:15:21;;;;;;;22.95;4.35;;;8.30;99.90;;;;;;5026109;28;20068;-34
2022/02/02 08:17:49;;;;;;;22.55;3.80;;;8.30;99.90;;;;;;5026734;28;20025;-36
2022/02/02 08:20:15;;;;;;;15.68;3.10;;;8.30;99.90;;;;;;5025724;28;20076;-35
2022/02/02 08:22:41;;;;;;;19.80;3.80;;;8.30;99.90;;;;;;5027311;28;20053;-33
2022/02/02 08:25:09;;;;;;;14.82;3.40;;;8.40;99.90;;;;;;5026232;28;20029;-36
2022/02/02 08:27:40;;;;;;;14.48;4.07;;;8.40;99.90;;;;;;5027289;28;20029;-35
2022/02/02 08:30:10;;;;;;;21.63;4.03;;;8.40;99.90;;;;;;5026456;28;20052;-35
2022/02/02 08:32:42;;;;;;;18.13;4.07;;;8.40;99.90;;;;;;5026195;28;20030;-35
2022/02/02 08:35:09;;;;;;;20.58;4.15;;;8.40;99.90;;;;;;5026772;28;20029;-36
2022/02/02 08:37:37;;;;;;;18.85;4.13;;;8.40;99.90;;;;;;5026880;28;20033;-34
2022/02/02 08:42:38;;;;;;;22.13;4.53;;;8.40;99.90;;;;;;5026928;28;20042;-34
2022/02/02 08:45:19;;;;;;;19.92;3.88;;;8.50;99.90;;;;;;5026429;28;20781;-35
2022/02/02 08:47:55;;;;;;;23.13;4.43;;;8.40;99.90;;;;;;5026608;28;20105;-35
2022/02/02 08:50:28;;;;;;;20.15;4.88;;;8.50;99.90;;;;;;5009491;28;20026;-35
2022/02/02 08:52:57;;;;;;;;;;;8.40;99.90;;;;;;5026891;28;20041;-34
2022/02/02 08:55:47;;;;;;;18.08;4.35;;;8.40;99.90;;;;;;5025753;28;20310;-35
2022/02/02 08:58:21;;;;;;;16.15;4.00;;;8.30;99.90;;;;;;5035059;28;20041;-34
2022/02/02 09:00:49;;;;;;;19.58;4.43;;;8.30;99.90;;;;;;5039205;28;20888;-34
2022/02/02 09:05:59;;;;;;;11.38;3.28;;;8.30;99.90;;;;;;5026730;28;20040;-34
2022/02/02 09:08:29;;;;;;;24.58;4.60;;;8.30;99.90;;;;;;5025302;28;20424;-34
2022/02/02 09:35:27;;;;;;;26.33;5.47;;;8.90;99.90;;;;;;5025347;28;20472;-36
2022/02/02 09:37:53;;;;;;;22.00;4.68;;;9.00;99.90;;;;;;5026434;28;20027;-34
2022/02/02 09:43:03;;;;;;;20.52;4.13;;;9.10;99.90;;;;;;5025696;28;20076;-34
2022/02/02 09:45:29;;;;;;;16.38;4.25;;;9.20;99.90;;;;;;5028561;28;20388;-35
2022/02/02 09:47:59;;;;;;;27.25;4.75;;;9.20;99.90;;;;;;5029499;28;20500;-34
2022/02/02 09:50:36;;;;;;;30.13;5.55;;;9.20;99.90;;;;;;5028542;28;20032;-35
2022/02/02 09:53:04;;;;;;;28.15;5.78;;;9.20;99.90;;;;;;5029895;28;20115;-36
2022/02/02 09:55:49;;;;;;;22.98;5.15;;;9.20;99.90;;;;;;5029378;28;20025;-33
2022/02/02 10:01:27;;;;;;;32.22;5.93;;;9.20;99.90;;;;;;5029221;28;20119;-34
2022/02/02 10:04:16;;;;;;;31.55;6.00;;;9.20;99.90;;;;;;5029451;28;20033;-33
2022/02/02 10:06:53;;;;;;;25.45;5.55;;;9.30;99.90;;;;;;5029961;28;20140;-35
2022/02/02 10:09:52;;;;;;;30.60;6.57;;;9.40;99.90;;;;;;5028388;28;20109;-34
2022/02/02 10:12:42;;;;;;;28.20;5.65;;;9.50;99.90;;;;;;5027887;28;20607;-33
2022/02/02 10:15:15;;;;;;;35.13;6.75;;;9.60;99.90;;;;;;5028400;28;20080;-33
2022/02/02 10:17:41;;;;;;;29.55;5.95;;;9.60;99.90;;;;;;5029483;28;20029;-35
2022/02/02 10:20:21;;;;;;;27.88;6.28;;;9.70;99.90;;;;;;5028418;28;20605;-34
2022/02/02 10:22:49;;;;;;;25.52;5.20;;;9.70;99.90;;;;;;5029566;28;20516;-34
2022/02/02 10:25:38;;;;;;;24.42;5.72;;;9.70;99.90;;;;;;5028754;28;20380;-34
2022/02/02 10:28:06;;;;;;;23.92;5.05;;;9.70;99.90;;;;;;5029760;28;20030;-34
2022/02/02 10:30:32;;;;;;;27.90;5.40;;;9.70;99.90;;;;;;5028249;28;20451;-34
2022/02/02 10:32:59;;;;;;;25.33;6.00;;;9.80;99.90;;;;;;5029344;28;20017;-35
2022/02/02 10:35:33;;;;;;;24.02;4.72;;;9.90;99.90;;;;;;5027229;28;20373;-34
2022/02/02 10:38:01;;;;;;;28.02;5.25;;;9.90;99.90;;;;;;5027459;28;20579;-34
2022/02/02 10:43:21;;;;;;;26.58;5.63;;;10.00;99.90;;;;;;5008505;28;20063;-35
2022/02/02 10:45:47;;;;;;;20.92;4.80;;;10.10;99.90;;;;;;5025597;28;20080;-35
2022/02/02 10:48:30;;;;;;;28.80;5.75;;;10.10;99.90;;;;;;5028395;28;20524;-35
2022/02/02 10:51:03;;;;;;;30.42;6.65;;;10.10;99.90;;;;;;5029035;28;20075;-34
2022/02/02 10:54:19;;;;;;;30.33;5.65;;;10.20;99.90;;;;;;5027729;28;20076;-34
2022/02/02 11:06:41;;;;;;;31.25;6.95;;;10.50;99.90;;;;;;5024184;28;20044;-34
2022/02/02 11:09:18;;;;;;;28.63;6.32;;;10.50;99.90;;;;;;5028767;28;20025;-36
2022/02/02 11:11:49;;;;;;;28.10;6.85;;;10.50;99.90;;;;;;5027612;28;20036;-35
2022/02/02 11:14:22;;;;;;;26.02;6.28;;;10.50;99.90;;;;;;5027147;28;20481;-36
2022/02/02 11:16:54;;;;;;;33.08;7.25;;;10.50;99.90;;;;;;5028832;28;20026;-35
2022/02/02 11:19:22;;;;;;;23.25;5.78;;;10.40;99.90;;;;;;5029919;28;20041;-35
2022/02/02 11:21:48;;;;;;;30.48;6.03;;;10.40;99.90;;;;;;5027576;28;20038;-36
2022/02/02 11:24:18;;;;;;;27.55;5.68;;;10.30;99.90;;;;;;5027519;28;20757;-36
2022/02/02 11:26:46;;;;;;;25.73;5.82;;;10.40;99.90;;;;;;5027703;28;20475;-35
2022/02/02 11:29:38;;;;;;;18.63;4.97;;;10.40;99.90;;;;;;5026888;28;20087;-34
2022/02/02 11:32:07;;;;;;;25.25;5.47;;;10.60;99.90;;;;;;5027425;28;20026;-35
2022/02/02 11:34:32;;;;;;;22.05;5.13;;;10.70;99.90;;;;;;5026749;28;20485;-35
2022/02/02 11:37:00;;;;;;;30.25;5.78;;;10.70;99.90;;;;;;5026740;28;20017;-34
2022/02/02 11:39:42;;;;;;;20.27;4.55;;;10.70;99.90;;;;;;5027040;28;20041;-35
2022/02/02 11:42:15;;;;;;;16.17;3.92;;;10.70;99.90;;;;;;5026644;28;20072;-36
2022/02/02 11:44:53;;;;;;;22.77;4.60;;;10.80;99.90;;;;;;5027413;28;20069;-34
2022/02/02 11:47:39;;;;;;;23.25;4.43;;;10.80;99.90;;;;;;5026637;28;20129;-34
2022/02/02 11:50:06;;;;;;;22.55;4.55;;;11.00;99.90;;;;;;5027845;28;20067;-34
2022/02/02 11:52:37;;;;;;;19.63;4.43;;;11.00;99.90;;;;;;5026448;28;20082;-35
2022/02/02 11:55:05;;;;;;;18.90;4.78;;;11.00;99.90;;;;;;5027843;28;20026;-34
2022/02/02 11:58:12;;;;;;;18.20;3.90;;;11.00;99.90;;;;;;5026376;28;20029;-34
2022/02/02 12:01:00;;;;;;;16.83;4.15;;;11.00;99.90;;;;;;5007491;28;20033;-36
2022/02/02 12:04:03;;;;;;;17.20;4.15;;;11.10;99.90;;;;;;5024286;28;20052;-35
2022/02/02 12:19:04;;;;;;;20.98;3.90;;;11.10;99.90;;;;;;5026837;28;20037;-34
2022/02/02 13:03:10;;;;;;;10.00;2.20;;;11.00;99.90;;;;;;5026613;28;20137;-35
2022/02/02 13:05:38;;;;;;;12.40;2.90;;;11.00;99.90;;;;;;5026084;28;20088;-34
2022/02/02 13:08:05;;;;;;;10.57;2.28;;;11.00;99.90;;;;;;5026334;28;20037;-35
2022/02/02 13:10:33;;;;;;;13.38;3.13;;;11.00;99.90;;;;;;5025958;28;20091;-35
2022/02/02 13:13:10;;;;;;;10.18;2.33;;;11.00;99.90;;;;;;5025710;28;20677;-35
2022/02/02 13:15:43;;;;;;;10.95;2.80;;;11.10;99.90;;;;;;5030003;28;20032;-35
2022/02/02 13:18:28;;;;;;;11.90;2.55;;;11.10;99.90;;;;;;5006950;28;20030;-35
2022/02/02 13:23:51;;;;;;;11.95;2.78;;;11.20;99.90;;;;;;5029736;28;20033;-34
2022/02/02 13:26:30;;;;;;;12.10;2.88;;;11.20;99.90;;;;;;5026330;28;20041;-34
2022/02/02 13:31:58;;;;;;;9.13;2.08;;;11.20;99.90;;;;;;5028926;28;20049;-34
2022/02/02 13:42:58;;;;;;;8.88;2.05;;;11.20;99.90;;;;;;5028918;28;20041;-35
2022/02/02 13:53:52;;;;;;;9.40;2.92;;;11.30;99.90;;;;;;5029424;28;20045;-35
2022/02/02 14:04:35;;;;;;;10.48;2.80;;;11.30;99.90;;;;;;5029171;28;20029;-33
2022/02/02 14:31:04;;;;;;;11.07;2.83;;;11.10;99.60;;;;;;5028980;28;20148;-34
2022/02/02 14:31:45;;;;;;;13.75;3.00;;;11.00;99.30;;;;;;5000233;28;20030;-34
2022/02/02 14:34:12;;;;;;;11.68;2.75;;;11.10;99.30;;;;;;5028885;28;20100;-34
2022/02/02 14:36:40;;;;;;;12.13;2.50;;;11.00;99.40;;;;;;5029250;28;20039;-34
2022/02/02 14:39:16;;;;;;;13.68;3.47;;;11.00;99.80;;;;;;5028531;28;20040;-34
2022/02/02 14:41:48;;;;;;;12.60;3.03;;;11.10;99.60;;;;;;5027854;28;20049;-35
2022/02/02 14:44:20;;;;;;;12.18;3.30;;;11.10;99.70;;;;;;5028760;28;20017;-35
2022/02/02 15:28:49;;;;;;;9.05;2.50;;;10.70;99.90;;;;;;5028160;28;20433;-35
2022/02/02 15:31:15;;;;;;;10.45;2.05;;;10.70;99.90;;;;;;5028001;28;20962;-34
2022/02/02 15:33:48;;;;;;;6.95;1.73;;;10.60;99.90;;;;;;5028171;28;20052;-35
2022/02/02 15:38:55;;;;;;;7.60;2.38;;;10.50;99.90;;;;;;5028237;28;20112;-34
2022/02/02 15:41:28;;;;;;;7.22;2.22;;;10.40;99.90;;;;;;5025350;28;20038;-35
2022/02/02 15:55:27;;;;;;;5.53;1.60;;;10.20;99.90;;;;;;5027736;28;20150;-35
2022/02/02 16:00:58;;;;;;;10.52;2.08;;;10.20;99.90;;;;;;5027915;28;20048;-35
2022/02/02 16:03:07;;;;;;;12.85;2.30;;;10.20;99.90;;;;;;5027455;28;20146;-36
2022/02/02 16:05:41;;;;;;;7.07;2.47;;;10.20;99.90;;;;;;5027547;28;20031;-35
2022/02/02 16:08:09;;;;;;;16.63;3.28;;;10.20;99.90;;;;;;5027677;28;20164;-35
2022/02/02 16:10:47;;;;;;;14.00;2.55;;;10.20;99.90;;;;;;5027463;28;20034;-34
2022/02/02 16:13:28;;;;;;;9.45;2.80;;;10.20;99.90;;;;;;5027767;28;20025;-34
2022/02/02 16:15:59;;;;;;;15.57;3.60;;;10.30;99.90;;;;;;5026358;28;20032;-36
2022/02/02 16:18:39;;;;;;;11.57;2.97;;;10.30;99.90;;;;;;5026910;28;20036;-35
2022/02/02 16:32:44;;;;;;;13.35;3.03;;;9.90;99.90;;;;;;5026172;28;20048;-34
2022/02/02 16:38:08;;;;;;;13.70;2.88;;;9.80;99.90;;;;;;5026374;28;20067;-35
2022/02/02 16:40:35;;;;;;;14.15;3.35;;;9.70;99.90;;;;;;5026353;28;20380;-34
2022/02/02 16:43:14;;;;;;;8.80;2.58;;;9.70;99.90;;;;;;5038764;28;20045;-34
2022/02/02 16:45:50;;;;;;;14.70;3.15;;;9.60;99.90;;;;;;5026717;28;20026;-33
2022/02/02 16:48:16;;;;;;;9.05;2.30;;;9.60;99.90;;;;;;5024225;28;20032;-34
2022/02/02 16:50:45;;;;;;;12.70;2.97;;;9.60;99.90;;;;;;5023019;28;20026;-34
2022/02/02 16:55:54;;;;;;;14.23;2.60;;;9.50;99.90;;;;;;5031364;28;20396;-34
2022/02/02 17:30:58;;;;;;;12.27;2.80;;;9.80;99.90;;;;;;5031610;28;20029;-36
2022/02/02 17:33:30;;;;;;;12.75;2.65;;;9.70;99.90;;;;;;5029977;28;20022;-35
2022/02/02 17:36:12;;;;;;;10.90;3.30;;;9.80;99.90;;;;;;5030940;28;20029;-34
2022/02/02 17:38:52;;;;;;;15.57;5.03;;;9.80;99.90;;;;;;5030571;28;20048;-35
2022/02/02 17:41:33;;;;;;;11.90;2.95;;;9.70;99.90;;;;;;5029711;28;20043;-34
2022/02/02 17:44:24;;;;;;;13.98;3.67;;;9.80;99.90;;;;;;5030744;28;20025;-34
2022/02/02 18:00:55;;;;;;;13.85;3.90;;;9.50;99.90;;;;;;5027759;28;20029;-34
2022/02/02 18:19:40;;;;;;;19.25;5.78;;;9.40;99.90;;;;;;5028492;28;20033;-34
2022/02/02 18:22:05;;;;;;;11.73;4.80;;;9.40;99.90;;;;;;5019833;28;20060;-35
2022/02/02 18:24:48;;;;;;;13.10;5.53;;;9.40;99.90;;;;;;5026731;28;20030;-34
2022/02/02 18:27:20;;;;;;;;;;;9.40;99.90;;;;;;5032539;28;20547;-34
2022/02/02 18:34:53;;;;;;;14.52;5.57;;;9.30;99.90;;;;;;5028591;28;20030;-35
2022/02/02 18:41:13;;;;;;;14.38;4.80;;;9.30;99.90;;;;;;5027416;28;20041;-33
2022/02/02 18:46:20;;;;;;;14.02;5.20;;;9.30;99.90;;;;;;5025889;28;20030;-33
2022/02/02 18:48:24;;;;;;;14.25;5.40;;;9.40;99.90;;;;;;5018970;28;20041;-34
2022/02/02 18:56:06;;;;;;;10.98;4.00;;;9.50;99.90;;;;;;5028307;28;20377;-35
2022/02/02 19:04:23;;;;;;;10.43;4.43;;;9.50;99.90;;;;;;5028966;28;20389;-34
2022/02/02 19:15:25;;;;;;;8.85;4.25;;;9.50;99.90;;;;;;5028883;28;20029;-33
2022/02/02 19:39:59;;;;;;;9.43;6.78;;;9.70;99.90;;;;;;5031666;28;20037;-34
2022/02/02 20:06:21;;;;;;;7.93;5.47;;;9.70;99.90;;;;;;5028039;28;20043;-33
2022/02/02 20:11:19;;;;;;;10.75;6.63;;;9.70;99.90;;;;;;5027175;28;20022;-35
2022/02/02 20:13:44;;;;;;;10.82;7.28;;;9.60;99.90;;;;;;5027382;28;20033;-34
2022/02/02 20:16:10;;;;;;;10.23;7.70;;;9.70;99.90;;;;;;5026499;28;20034;-34
2022/02/02 20:18:40;;;;;;;9.90;6.90;;;9.70;99.90;;;;;;5026839;28;20025;-34
2022/02/02 20:21:08;;;;;;;6.95;5.80;;;9.70;99.90;;;;;;5026834;28;20061;-34
2022/02/02 20:23:40;;;;;;;8.88;6.50;;;9.70;99.90;;;;;;5022616;28;20041;-33
2022/02/02 20:26:07;;;;;;;8.38;6.03;;;9.70;99.90;;;;;;5017954;28;20404;-35
2022/02/02 20:28:33;;;;;;;11.02;7.50;;;9.70;99.90;;;;;;5027021;28;20365;-33
2022/02/02 20:30:59;;;;;;;11.57;7.95;;;9.70;99.90;;;;;;5027486;28;20032;-34
2022/02/02 20:33:24;;;;;;;8.25;7.05;;;9.70;99.90;;;;;;5026801;28;20025;-33
2022/02/02 20:35:50;;;;;;;11.93;8.45;;;9.70;99.90;;;;;;5029796;28;20024;-35
2022/02/02 20:38:15;;;;;;;11.55;7.63;;;9.70;99.90;;;;;;5026428;28;20468;-33
2022/02/02 20:40:41;;;;;;;13.65;8.75;;;9.70;99.90;;;;;;5028354;28;20022;-33
2022/02/02 20:43:11;;;;;;;12.60;8.95;;;9.70;99.90;;;;;;5028641;28;20500;-35
2022/02/02 21:04:42;;;;;;;20.80;12.05;;;9.60;99.90;;;;;;5027456;28;20407;-33
2022/02/02 21:07:26;;;;;;;18.90;12.50;;;9.70;99.90;;;;;;5027544;28;20030;-35
2022/02/02 21:10:03;;;;;;;16.35;11.30;;;9.70;99.90;;;;;;5028000;28;20766;-34
2022/02/02 21:15:21;;;;;;;19.02;13.00;;;9.70;99.90;;;;;;5027398;28;20041;-33
2022/02/02 21:17:46;;;;;;;19.02;13.02;;;9.70;99.90;;;;;;5028179;28;20025;-35
2022/02/02 21:23:04;;;;;;;23.75;14.98;;;9.70;99.90;;;;;;5025275;28;20049;-35
2022/02/02 21:25:39;;;;;;;18.08;11.95;;;9.70;99.90;;;;;;5024983;28;20021;-36
2022/02/02 21:28:07;;;;;;;17.38;11.98;;;9.70;99.90;;;;;;5027133;28;20037;-35
2022/02/02 21:30:34;;;;;;;17.95;12.80;;;9.70;99.90;;;;;;5026007;28;20022;-37
2022/02/02 21:33:01;;;;;;;22.95;13.75;;;9.70;99.90;;;;;;5026253;28;20057;-33
2022/02/02 21:35:27;;;;;;;23.02;14.95;;;9.70;99.90;;;;;;5025181;28;20387;-36
2022/02/02 21:38:06;;;;;;;20.95;13.82;;;9.70;99.90;;;;;;5026703;28;20021;-36
2022/02/02 21:40:32;;;;;;;20.00;13.70;;;9.60;99.90;;;;;;5027601;28;20129;-36
2022/02/02 21:42:58;;;;;;;22.00;14.20;;;9.70;99.90;;;;;;5029884;28;20526;-35
2022/02/02 21:45:27;;;;;;;20.02;13.65;;;9.70;99.90;;;;;;5029786;28;20449;-34
2022/02/02 21:47:52;;;;;;;16.98;11.93;;;9.70;99.90;;;;;;5029445;28;20120;-34
2022/02/02 21:50:20;;;;;;;20.92;13.25;;;9.70;99.90;;;;;;5029662;28;20105;-34
2022/02/02 21:52:47;;;;;;;18.75;13.35;;;9.70;99.90;;;;;;5030692;28;20059;-36
2022/02/02 21:55:13;;;;;;;20.60;13.70;;;9.70;99.90;;;;;;5029646;28;20465;-36
2022/02/02 21:57:40;;;;;;;19.73;12.05;;;9.70;99.90;;;;;;5029895;28;20080;-34
2022/02/02 22:00:14;;;;;;;17.60;11.60;;;9.70;99.90;;;;;;5030758;28;20025;-35
2022/02/02 22:02:41;;;;;;;23.45;13.98;;;9.70;99.90;;;;;;5029706;28;20080;-35
2022/02/02 22:05:08;;;;;;;22.75;14.43;;;9.70;99.90;;;;;;5030122;28;20017;-35
2022/02/02 22:07:34;;;;;;;23.35;14.95;;;9.70;99.90;;;;;;5029484;28;20563;-35
2022/02/02 22:10:04;;;;;;;19.90;13.68;;;9.70;99.90;;;;;;5029902;28;20028;-35
2022/02/02 22:12:32;;;;;;;20.85;13.43;;;9.70;99.90;;;;;;5030324;28;20025;-36
2022/02/02 22:14:58;;;;;;;18.77;13.43;;;9.70;99.90;;;;;;5030203;28;20032;-35
2022/02/02 22:17:24;;;;;;;21.73;14.98;;;9.70;99.90;;;;;;5029605;28;20025;-35
2022/02/02 22:19:53;;;;;;;21.15;14.30;;;9.70;99.90;;;;;;5030368;28;20056;-34
2022/02/02 22:22:19;;;;;;;20.17;14.98;;;9.70;99.90;;;;;;5028827;28;20040;-35
2022/02/02 22:24:45;;;;;;;20.23;14.65;;;9.70;99.90;;;;;;5030208;28;20017;-35
2022/02/02 22:27:10;;;;;;;24.10;15.48;;;9.70;99.90;;;;;;5030356;28;20404;-34
2022/02/02 22:29:36;;;;;;;21.48;15.23;;;9.70;99.90;;;;;;5029467;28;20077;-34
2022/02/02 22:32:02;;;;;;;18.60;13.23;;;9.70;99.90;;;;;;5030095;28;20033;-34
2022/02/02 22:34:30;;;;;;;19.83;14.15;;;9.70;99.90;;;;;;5028943;28;20049;-34
2022/02/02 22:36:56;;;;;;;16.65;12.77;;;9.70;99.90;;;;;;5030025;28;20048;-34
2022/02/02 22:39:22;;;;;;;19.80;14.27;;;9.70;99.90;;;;;;5029137;28;20078;-35
2022/02/02 22:41:49;;;;;;;21.20;16.02;;;9.70;99.90;;;;;;5030048;28;20057;-35
2022/02/02 22:44:16;;;;;;;21.20;14.98;;;9.70;99.90;;;;;;5028927;28;20076;-35
2022/02/02 22:46:45;;;;;;;21.48;15.55;;;9.70;99.90;;;;;;5029764;28;20032;-35
2022/02/02 22:49:11;;;;;;;24.17;15.85;;;9.70;99.90;;;;;;5029362;28;20025;-35
2022/02/02 22:51:36;;;;;;;19.33;13.75;;;9.70;99.90;;;;;;5028929;28;20475;-34
2022/02/02 22:54:05;;;;;;;21.02;15.90;;;9.70;99.90;;;;;;5030028;28;20538;-34
2022/02/02 22:56:31;;;;;;;21.42;16.50;;;9.70;99.90;;;;;;5029393;28;20022;-34
2022/02/02 22:58:58;;;;;;;21.60;16.20;;;9.70;99.90;;;;;;5028597;28;20548;-34
2022/02/02 23:01:26;;;;;;;18.77;14.88;;;9.70;99.90;;;;;;5029088;28;20052;-35
2022/02/02 23:03:53;;;;;;;21.83;16.08;;;9.70;99.90;;;;;;5028878;28;20064;-36
2022/02/02 23:06:19;;;;;;;24.23;17.63;;;9.70;99.90;;;;;;5028486;28;20091;-35
2022/02/02 23:08:44;;;;;;;27.63;18.52;;;9.80;99.90;;;;;;5029857;28;20029;-34
2022/02/02 23:11:19;;;;;;;24.13;17.65;;;9.80;99.90;;;;;;5028642;28;20400;-34
2022/02/02 23:13:48;;;;;;;20.95;15.13;;;9.80;99.90;;;;;;5029174;28;20468;-35
2022/02/02 23:16:24;;;;;;;20.40;15.73;;;9.80;99.90;;;;;;5028476;28;20021;-35
2022/02/02 23:18:50;;;;;;;18.10;14.65;;;9.80;99.90;;;;;;5030041;28;20112;-34